Saint John, Missouri
Current Conditions -  °F | °C
As of 4:51 PM on Saturday 20 Dec 2014 (Local Time) from KSTL Reporting Station
Overcast Overcast  
Wind Chill: 38°   Ceiling: 3000
Heat Index: 42°   Visibility: 10mi
Dew Point: 33°   Wind: 6mph
Humidity: 70%   Direction: 120°ESE
Pressure: 30.23"   Gusts: NA
Location:  38.702°N, 90.3628°W
Report Text: KSTL 202251Z 12005KT 10SM OVC030 06/01 A3023 RMK AO2 SLP244 T00560006
Loading
Personal Weather Stations






























Interactive Weather Map New forecast layout! Learn more

10-Day Weather Forecast

Advertisements
Track Severe Weather on mobile